METAR AND TAF INFORMATION
METAR FOR KLSV
KLSV 260155Z AUTO 06007KT 10SM CLR 18/02 A2995 RMK AO2 SLP136 T01750019 $
KLSV 260055Z AUTO 05004KT 10SM CLR 20/M01 A2995 RMK AO2 SLP135 T01971014 $
KLSV 252355Z AUTO 00000KT 10SM CLR 20/M01 A2995 RMK AO2 SLP135 T02041014 10207 20138 57020 $

TAF KLSV 252300Z 2523/2705 12006KT 9999 BKN180 QNH2985INS
BECMG 2620/2621 24015G25KT 9999 BKN200 520009 QNH2973INS
TEMPO 2622/2624 23020G35KT 530009
BECMG 2704/2705 23009KT 9999 SCT200 QNH2977INS TX21/2523Z TN11/2611Z

 AIRPORT MAP

 RUNWAY INFORMATION
Runway 03L Runway length 10123 ft Runway width 200 ft
Runway elevation 1834 ft Runway displaced threshold 0 ft Runway heading 41
Runway 21R Runway length 10123 ft Runway width 200 ft
Runway elevation 1870 ft Runway displaced threshold 0 ft Runway heading 221
Runway 03R Runway length 10055 ft Runway width 150 ft
Runway elevation 1826 ft Runway displaced threshold 0 ft Runway heading 41
Runway 21L Runway length 10055 ft Runway width 150 ft
Runway elevation 1866 ft Runway displaced threshold 0 ft Runway heading 221

 AIRPORT FREQUENCIES
Type ACP Name ALCE AMC Frequency 25.735 MHZ
Type APP Name APP Frequency 118.125 MHZ
Type ATIS Name ATIS Frequency 27.01 MHZ
Type CLD Name CLNC DEL Frequency 120.9 MHZ
Type DEP Name DEP Frequency 135.1 MHZ
Type GND Name GND Frequency 121.8 MHZ
Type MISC Name SOF Frequency 30.56 MHZ
Type PMSV Name PMSV METRO Frequency 32.39 MHZ
Type POST Name ACC COMD P Frequency 32 MHZ
Type PTD Name PTD Frequency 139.3 MHZ
Type TWR Name TWR Frequency 132.55 MHZ

 AIRPORT NEAR NAVIGATION AIDS
Type TACAN Name Nellis Frequency 135500 KHZ

-